Bookmark and Share
Track history (hours):
 

Fireboat Challenger

More information available from US FCC via Universal Licensing System and Coast Guard Vessel Documentation Center.

Last reported at 2014-Apr-16 02:33 UTC. Time now 2014-Apr-18 13:11 UTC.
Position N 33°45' W 118°13'.

Length 29 m.

MMSI: 367067790.

NotesDate/timePositionNaut miles runAvg speedWind from/ knotsBaromVisibWave heightAir tempDewpointWater temp
2014-Apr-16 02:33N 33°45' W 118°13'0 0.0
2014-Apr-16 00:13N 33°45' W 118°13'0 0.0
2014-Apr-15 23:33N 33°45' W 118°13'0 0.0
2014-Apr-15 22:33N 33°45' W 118°13'0 0.0
2014-Apr-15 21:29N 33°45' W 118°13'0 0.0
2014-Apr-15 20:32N 33°45' W 118°13'0 0.0
2014-Apr-14 21:34N 33°45' W 118°13'0 0.0
2014-Apr-14 20:34N 33°45' W 118°13'  
2014-Apr-12 02:12N 33°45' W 118°13'0 0.0
2014-Apr-12 01:29N 33°45' W 118°13'0 0.0
2014-Apr-12 00:33N 33°45' W 118°13'0 0.0
2014-Apr-11 23:33N 33°45' W 118°13'2 2.3
2014-Apr-11 22:33N 33°44' W 118°10'2 2.3
2014-Apr-11 21:33N 33°45' W 118°13'0 0.0
2014-Apr-11 20:15N 33°45' W 118°13'0 0.0
2014-Apr-10 21:33N 33°45' W 118°13'0 0.0
2014-Apr-10 20:33N 33°45' W 118°13'0 0.0
2014-Apr-10 19:33N 33°45' W 118°13'2 1.8
2014-Apr-10 18:32N 33°45' W 118°11'2 1.6
2014-Apr-10 17:25N 33°45' W 118°13'0 0.0
2014-Apr-10 15:31N 33°45' W 118°13'0 0.0
2014-Apr-09 23:17N 33°45' W 118°13'0 0.0
2014-Apr-09 22:21N 33°45' W 118°13'0 0.0
2014-Apr-09 21:28N 33°45' W 118°13'0 0.0
2014-Apr-09 17:33N 33°45' W 118°13'0 0.0
2014-Apr-09 15:25N 33°45' W 118°13'0 0.0
2014-Apr-08 15:23N 33°45' W 118°13'0 0.0
2014-Apr-08 11:17N 33°45' W 118°13'0 0.0
2014-Apr-08 10:33N 33°45' W 118°13'0 0.0
2014-Apr-08 09:33N 33°45' W 118°13'0 0.0
2014-Apr-08 08:33N 33°45' W 118°13'0 0.0
2014-Apr-07 23:23N 33°45' W 118°13'3 2.6
2014-Apr-07 22:23N 33°44' W 118°16'0 0.0
2014-Apr-07 21:32N 33°44' W 118°16'3 1.2
2014-Apr-07 19:13N 33°45' W 118°13'0 0.0
2014-Apr-07 10:20N 33°45' W 118°13'0 0.0
2014-Apr-07 06:22N 33°45' W 118°13'0 0.0
2014-Apr-07 00:26N 33°45' W 118°13'0 0.0
2014-Apr-06 22:32N 33°45' W 118°13'1 1.5
2014-Apr-06 21:34N 33°45' W 118°11'  

Dump ship's entire track history

sailing weather and tide predictions

Fireboat Challenger — WR8183 — position and weather